ADDS METAR Data INFO
IDs: Format: Raw Decoded Include TAF

Data at: 0206 UTC 21 Apr 2018

KELA 210155Z AUTO 11010G14KT 10SM CLR 18/13 A3008 RMK AO2 T01780125
KELA 210135Z AUTO 11008KT 10SM CLR 18/12 A3007 RMK AO2 T01800124
KELA 210115Z AUTO 11008KT 10SM CLR 18/12 A3007 RMK AO2 T01800121
KELA 210055Z AUTO 13008KT 10SM CLR 18/12 A3009 RMK AO2 T01820117
KELA 210035Z AUTO 13009G14KT 10SM CLR 19/11 A3008 RMK AO2 T01850114
KELA 210015Z AUTO 13010G15KT 10SM CLR 19/11 A3008 RMK AO2 T01900112
KELA 202355Z AUTO 12008KT 10SM CLR 19/11 A3010 RMK AO2 T01930111 10208 20180
KELA 202335Z AUTO 12006KT 10SM CLR 20/11 A3010 RMK AO2 T01950111
KELA 202315Z AUTO 11007KT 10SM CLR 20/11 A3011 RMK AO2 T01970110
KELA 202255Z AUTO 11009KT 10SM CLR 20/11 A3010 RMK AO2 LTG DSNT N T02000112
KELA 202235Z AUTO 12006KT 10SM CLR 20/11 A3011 RMK AO2 T02040112
KELA 202215Z AUTO 10009KT 10SM CLR 20/11 A3012 RMK AO2 T02030109
KELA 202155Z AUTO 12008KT 10SM CLR 21/11 A3013 RMK AO2 T02060107
KELA 202135Z AUTO 12006KT 10SM CLR 20/10 A3014 RMK AO2 T02010101
KELA 202115Z AUTO 11008KT 10SM CLR 20/10 A3014 RMK AO2 T02000096
KELA 202055Z AUTO 12006KT 10SM CLR 20/09 A3016 RMK AO2 T01990089
KELA 202035Z AUTO 13008KT 10SM CLR 20/08 A3015 RMK AO2 T01970082
KELA 202015Z AUTO 11010G18KT 10SM CLR 20/08 A3014 RMK AO2 T01960077
KELA 201955Z AUTO 10009G14KT 10SM CLR 19/08 A3015 RMK AO2 T01930076
KELA 201935Z AUTO 12009G15KT 10SM CLR 19/07 A3017 RMK AO2 T01880073
KELA 201915Z AUTO 11013G17KT 10SM CLR 19/07 A3016 RMK AO2 T01860072
KELA 201855Z AUTO 11012G16KT 10SM CLR 19/07 A3017 RMK AO2 T01850070
KELA 201835Z AUTO 11009KT 10SM CLR 18/07 A3021 RMK AO2 T01840065
KELA 201815Z AUTO 11008G14KT 10SM CLR 18/06 A3022 RMK AO2 T01820064
KELA 201755Z AUTO 10008G14KT 10SM CLR 18/06 A3023 RMK AO2 T01800060 10185 20123
KELA 201735Z AUTO 10008KT 10SM CLR 18/07 A3024 RMK AO2 T01820065
KELA 201715Z AUTO 10010G14KT 10SM CLR 18/06 A3025 RMK AO2 T01780062
KELA 201655Z AUTO 10008KT 10SM CLR 18/07 A3026 RMK AO2 T01750065
KELA 201635Z AUTO 09008G15KT 10SM CLR 18/06 A3027 RMK AO2 T01750064
KELA 201615Z AUTO 09007G14KT 10SM CLR 18/07 A3028 RMK AO2 T01750065
KELA 201555Z AUTO 10008G14KT 10SM CLR 17/06 A3027 RMK AO2 T01700059
KELA 201535Z AUTO 08010KT 10SM CLR 17/06 A3028 RMK AO2 T01670060
KELA 201515Z AUTO 09013G18KT 10SM CLR 17/06 A3026 RMK AO2 T01660055
KELA 201455Z AUTO 09011G18KT 10SM CLR 16/06 A3025 RMK AO2 T01560057
KELA 201435Z AUTO 09012G17KT 10SM CLR 16/07 A3025 RMK AO2 T01610068
KELA 201415Z AUTO 08011KT 10SM CLR 15/07 A3024 RMK AO2 T01480070
KELA 201355Z AUTO 08010KT 10SM CLR 15/07 A3024 RMK AO2 T01460074
KELA 201335Z AUTO 08008KT 10SM CLR 14/08 A3025 RMK AO2 T01410077
KELA 201315Z AUTO 08012KT 10SM CLR 14/08 A3024 RMK AO2 T01430082
KELA 201255Z AUTO 07007KT 10SM CLR 14/09 A3025 RMK AO2 T01360089
KELA 201235Z AUTO 08009KT 10SM CLR 13/09 A3023 RMK AO2 T01330092
KELA 201215Z AUTO 07004KT 10SM CLR 13/09 A3024 RMK AO2 T01290091
KELA 201155Z AUTO 06006KT 10SM CLR 12/09 A3023 RMK AO2 T01230093 10140 20110
KELA 201135Z AUTO 04004KT 10SM CLR 12/09 A3023 RMK AO2 T01240094
KELA 201115Z AUTO 06005KT 10SM CLR 13/09 A3020 RMK AO2 T01300090
KELA 201055Z AUTO 07007KT 10SM CLR 13/09 A3018 RMK AO2 T01300090
KELA 201035Z AUTO 06007KT 10SM CLR 12/10 A3018 RMK AO2 T01200095
KELA 201015Z AUTO 05003KT 10SM CLR 12/10 A3019 RMK AO2 T01150095
KELA 200955Z AUTO 04005KT 10SM CLR 11/09 A3018 RMK AO2 T01120094
KELA 200935Z AUTO 04004KT 10SM CLR 11/09 A3018 RMK AO2 T01110093
KELA 200915Z AUTO 05004KT 10SM CLR 12/10 A3018 RMK AO2 T01150095
KELA 200855Z AUTO 04004KT 10SM CLR 12/10 A3018 RMK AO2 T01170095
KELA 200835Z AUTO 04004KT 10SM CLR 12/10 A3019 RMK AO2 T01210099
KELA 200815Z AUTO 04004KT 10SM CLR 13/10 A3019 RMK AO2 T01280095
KELA 200755Z AUTO 00000KT 10SM CLR 12/10 A3020 RMK AO2 T01230096
KELA 200735Z AUTO 03004KT 10SM CLR 12/10 A3020 RMK AO2 T01220095
KELA 200715Z AUTO 36003KT 10SM CLR 14/09 A3021 RMK AO2 T01380092
KELA 200655Z AUTO 01003KT 10SM CLR 14/10 A3021 RMK AO2 T01360095
KELA 200635Z AUTO 02003KT 10SM CLR 13/09 A3020 RMK AO2 T01290094
KELA 200615Z AUTO 06003KT 10SM CLR 13/10 A3019 RMK AO2 T01300095
KELA 200555Z AUTO 04004KT 10SM CLR 13/09 A3020 RMK AO2 T01320093 10229 20132 402530132
KELA 200535Z AUTO 00000KT 10SM CLR 14/09 A3021 RMK AO2 T01370090
KELA 200515Z AUTO 02003KT 10SM CLR 14/09 A3022 RMK AO2 T01410088
KELA 200455Z AUTO 04005KT 10SM CLR 14/09 A3022 RMK AO2 T01420088
KELA 200435Z AUTO 04004KT 10SM CLR 16/09 A3022 RMK AO2 T01560085
KELA 200415Z AUTO 03005KT 10SM CLR 15/09 A3022 RMK AO2 T01530088
KELA 200355Z AUTO 03005KT 10SM CLR 16/08 A3022 RMK AO2 T01580082
KELA 200335Z AUTO 04006KT 10SM CLR 16/08 A3021 RMK AO2 T01550079
KELA 200315Z AUTO 02006KT 10SM CLR 16/08 A3021 RMK AO2 T01560076
KELA 200255Z AUTO 01005KT 10SM CLR 16/08 A3022 RMK AO2 T01630077
KELA 200235Z AUTO 01005KT 10SM CLR 17/08 A3021 RMK AO2 T01660076
KELA 200215Z AUTO 01005KT 10SM CLR 17/07 A3020 RMK AO2 T01730072
KELA 200155Z AUTO 02004KT 10SM CLR 17/08 A3020 RMK AO2 T01720077
KELA 200135Z AUTO 01004KT 10SM CLR 18/07 A3020 RMK AO2 T01830070
KELA 200115Z AUTO 01005KT 10SM CLR 19/07 A3020 RMK AO2 T01870072
KELA 200055Z AUTO 01005KT 10SM CLR 20/06 A3019 RMK AO2 T01960064
KELA 200035Z AUTO 02005KT 10SM CLR 20/06 A3018 RMK AO2 T02000064
KELA 200015Z AUTO 02006KT 10SM CLR 22/06 A3019 RMK AO2 T02160056
KELA 192355Z AUTO 03009KT 10SM CLR 23/05 A3019 RMK AO2 T02300046 10253 20230
KELA 192335Z AUTO 03008KT 10SM CLR 24/06 A3019 RMK AO2 T02370057
KELA 192315Z AUTO 03006KT 10SM CLR 24/05 A3020 RMK AO2 T02430047
KELA 192255Z AUTO 02009KT 10SM CLR 23/04 A3020 RMK AO2 T02310040
KELA 192235Z AUTO 02009KT 10SM CLR 25/05 A3019 RMK AO2 T02470049
KELA 192215Z AUTO 02009G16KT 10SM CLR 25/05 A3019 RMK AO2 T02500047
KELA 192155Z AUTO 04009KT 360V070 10SM CLR 25/05 A3020 RMK AO2 T02500051
KELA 192135Z AUTO 04011G17KT 10SM CLR 25/05 A3020 RMK AO2 T02480048
KELA 192115Z AUTO 02010KT 10SM CLR 25/04 A3020 RMK AO2 T02500042
KELA 192055Z AUTO 02009KT 10SM CLR 25/05 A3021 RMK AO2 T02500053
KELA 192035Z AUTO 03012KT 10SM CLR 25/04 A3022 RMK AO2 T02510044
KELA 192015Z AUTO 03014G19KT 10SM CLR 25/05 A3023 RMK AO2 T02510045
KELA 191955Z AUTO 01013G20KT 10SM CLR 25/04 A3024 RMK AO2 T02490041
KELA 191935Z AUTO 03013G19KT 10SM CLR 25/04 A3025 RMK AO2 T02470040
KELA 191915Z AUTO 02017G21KT 10SM CLR 25/03 A3026 RMK AO2 T02480031
KELA 191855Z AUTO 02012G18KT 10SM CLR 25/04 A3026 RMK AO2 T02450038
KELA 191835Z AUTO 01013G19KT 10SM CLR 25/04 A3026 RMK AO2 T02450035
KELA 191815Z AUTO 02013G18KT 10SM CLR 24/03 A3027 RMK AO2 T02440031
KELA 191755Z AUTO 04015G20KT 10SM CLR 24/03 A3027 RMK AO2 T02420029 10244 20158
KELA 191735Z AUTO 02014G23KT 10SM CLR 24/03 A3029 RMK AO2 T02380027
KELA 191715Z AUTO 04013G19KT 10SM CLR 24/03 A3029 RMK AO2 T02350029
KELA 191655Z AUTO 03017G20KT 10SM CLR 24/03 A3029 RMK AO2 T02350027
KELA 191635Z AUTO 04017G22KT 10SM SCT075 23/02 A3030 RMK AO2 T02300018
KELA 191615Z AUTO 05012KT 10SM OVC075 23/03 A3029 RMK AO2 T02260032
KELA 191555Z AUTO 05014G21KT 10SM OVC075 22/03 A3029 RMK AO2 T02150027
KELA 191535Z AUTO 04017G23KT 10SM OVC075 21/03 A3029 RMK AO2 T02050029
KELA 191515Z AUTO 05010KT 10SM OVC075 20/05 A3029 RMK AO2 T01950045
KELA 191455Z AUTO 05013KT 10SM SCT060 OVC075 19/05 A3029 RMK AO2 T01920053
KELA 191435Z AUTO 04011KT 10SM SCT060 OVC075 19/06 A3029 RMK AO2 T01870056
KELA 191415Z AUTO 05010KT 10SM OVC075 19/06 A3028 RMK AO2 T01850057